createdAt,value
2023-01-09T00:00:57.447Z,0.73
2023-01-09T00:03:24.728Z,0.90
2023-01-09T00:05:51.944Z,1.00
2023-01-09T00:08:19.368Z,0.95
2023-01-09T00:10:48.686Z,1.00
2023-01-09T00:13:18.051Z,0.80
2023-01-09T00:15:44.985Z,1.00
2023-01-09T00:18:11.860Z,0.80
2023-01-09T00:20:39.216Z,0.70
2023-01-09T00:23:06.074Z,0.95
2023-01-09T00:25:33.697Z,0.90
2023-01-09T00:28:00.774Z,1.02
2023-01-09T00:30:28.155Z,0.90
2023-01-09T00:32:55.938Z,0.82
2023-01-09T00:35:24.927Z,0.88
2023-01-09T00:37:51.793Z,0.85
2023-01-09T00:40:19.150Z,1.20
2023-01-09T00:42:51.759Z,1.00
2023-01-09T00:45:28.670Z,1.00
2023-01-09T00:48:00.995Z,1.10
2023-01-09T00:50:31.912Z,0.90
2023-01-09T00:53:02.910Z,1.40
2023-01-09T00:55:29.896Z,1.00
2023-01-09T00:57:57.025Z,1.00
2023-01-09T01:00:24.371Z,1.08
2023-01-09T01:02:51.508Z,1.33
2023-01-09T01:05:36.975Z,1.15
2023-01-09T01:08:15.969Z,1.55
2023-01-09T01:10:43.619Z,1.38
2023-01-09T01:13:11.012Z,1.48
2023-01-09T01:15:42.127Z,1.30
2023-01-09T01:18:11.232Z,1.40
2023-01-09T01:20:41.384Z,1.52
2023-01-09T01:23:08.396Z,1.20
2023-01-09T01:25:40.155Z,1.75
2023-01-09T01:28:07.981Z,1.63
2023-01-09T01:30:39.634Z,2.08
2023-01-09T01:33:06.867Z,1.90
2023-01-09T01:35:34.091Z,1.85
2023-01-09T01:38:02.320Z,1.83
2023-01-09T01:40:30.111Z,1.80
2023-01-09T01:42:58.649Z,1.58
2023-01-09T01:45:28.429Z,1.80
2023-01-09T01:48:08.873Z,2.00
2023-01-09T01:53:16.967Z,1.85
2023-01-09T01:55:48.908Z,2.00
2023-01-09T01:58:16.649Z,2.20
2023-01-09T02:00:47.135Z,2.20
2023-01-09T02:03:17.780Z,2.53
2023-01-09T02:05:45.297Z,2.63
2023-01-09T02:08:12.983Z,3.33
2023-01-09T02:10:40.792Z,2.40
2023-01-09T02:13:09.069Z,2.85
2023-01-09T02:16:02.576Z,2.28
2023-01-09T02:18:52.416Z,2.63
2023-01-09T02:21:31.159Z,2.55
2023-01-09T02:23:58.537Z,2.55
2023-01-09T02:26:53.872Z,2.22
2023-01-09T02:29:41.535Z,2.45
2023-01-09T02:32:33.135Z,2.30
2023-01-09T02:35:11.953Z,2.00
2023-01-09T02:38:02.268Z,2.38
2023-01-09T02:43:14.729Z,2.25
2023-01-09T02:45:41.762Z,2.60
2023-01-09T02:48:11.295Z,2.13
2023-01-09T02:51:04.418Z,2.20
2023-01-09T02:53:46.758Z,1.90
2023-01-09T02:56:27.642Z,1.63
2023-01-09T02:59:05.415Z,2.08
2023-01-09T03:02:04.217Z,2.45
2023-01-09T03:05:10.892Z,2.30
2023-01-09T03:07:48.268Z,3.00
2023-01-09T03:10:22.502Z,2.22
2023-01-09T03:12:53.304Z,2.55
2023-01-09T03:15:24.878Z,2.20
2023-01-09T03:17:53.796Z,2.05
2023-01-09T03:20:24.709Z,2.28
2023-01-09T03:23:03.611Z,2.20
2023-01-09T03:25:31.410Z,2.13
2023-01-09T03:28:07.193Z,2.22
2023-01-09T03:30:35.556Z,1.92
2023-01-09T03:33:02.992Z,1.90
2023-01-09T03:35:30.329Z,1.85
2023-01-09T03:37:59.026Z,1.45
2023-01-09T03:40:26.338Z,1.60
2023-01-09T03:42:53.269Z,2.33
2023-01-09T03:45:20.141Z,1.85
2023-01-09T03:47:47.469Z,2.17
2023-01-09T03:50:14.712Z,2.03
2023-01-09T03:52:41.759Z,2.00
2023-01-09T03:55:08.954Z,1.70
2023-01-09T03:57:36.289Z,1.60
2023-01-09T04:00:04.495Z,1.10
2023-01-09T04:02:39.327Z,1.23
2023-01-09T04:05:06.960Z,0.90
2023-01-09T04:07:33.962Z,1.10
2023-01-09T04:10:01.228Z,1.27
2023-01-09T04:12:28.075Z,1.10
2023-01-09T04:14:54.920Z,1.13
2023-01-09T04:17:21.891Z,1.00
2023-01-09T04:19:48.769Z,1.20
2023-01-09T04:22:15.643Z,1.15
2023-01-09T04:24:42.903Z,0.93
2023-01-09T04:27:12.179Z,1.42
2023-01-09T04:29:39.492Z,1.13
2023-01-09T04:32:06.901Z,1.00
2023-01-09T04:34:34.293Z,1.17
2023-01-09T04:37:01.771Z,0.98
2023-01-09T04:39:29.087Z,0.90
2023-01-09T04:41:56.458Z,1.13
2023-01-09T04:44:27.632Z,1.00
2023-01-09T04:46:57.276Z,1.70
2023-01-09T04:49:24.586Z,0.98
2023-01-09T04:51:52.183Z,1.13
2023-01-09T04:54:19.885Z,0.90
2023-01-09T04:56:47.769Z,0.80
2023-01-09T04:59:15.240Z,0.80
2023-01-09T05:01:42.746Z,0.70
2023-01-09T05:04:11.253Z,0.60
2023-01-09T05:06:38.686Z,0.55
2023-01-09T05:09:05.972Z,0.38
2023-01-09T05:11:33.379Z,0.57
2023-01-09T05:14:00.874Z,0.60
2023-01-09T05:16:28.379Z,0.50
2023-01-09T05:18:57.207Z,0.50
2023-01-09T05:21:25.087Z,0.40
2023-01-09T05:23:52.561Z,0.50
2023-01-09T05:26:24.160Z,0.30
2023-01-09T05:28:56.685Z,0.52
2023-01-09T05:31:25.478Z,0.50
2023-01-09T05:33:53.147Z,0.40
2023-01-09T05:36:20.799Z,0.35
2023-01-09T05:38:53.101Z,0.77
2023-01-09T05:41:22.148Z,0.80
2023-01-09T05:43:50.327Z,0.40
2023-01-09T05:46:17.775Z,0.30
2023-01-09T05:48:45.263Z,0.50
2023-01-09T05:51:13.188Z,0.73
2023-01-09T05:53:40.516Z,0.30
2023-01-09T05:56:08.137Z,0.28
2023-01-09T05:58:35.455Z,0.40
2023-01-09T06:01:05.854Z,0.40
2023-01-09T06:03:35.716Z,0.32
2023-01-09T06:06:03.052Z,0.68
2023-01-09T06:08:30.376Z,0.70
2023-01-09T06:10:57.667Z,0.38
2023-01-09T06:13:24.937Z,1.27
2023-01-09T06:15:52.274Z,0.35
2023-01-09T06:18:19.628Z,0.40
2023-01-09T06:20:49.756Z,0.30
2023-01-09T06:23:17.052Z,0.15
2023-01-09T06:25:44.342Z,0.30
2023-01-09T06:28:11.879Z,0.30
2023-01-09T06:30:39.694Z,0.38
2023-01-09T06:33:10.187Z,0.30
2023-01-09T06:35:50.149Z,0.50
2023-01-09T06:38:17.693Z,0.30
2023-01-09T06:40:47.347Z,0.30
2023-01-09T06:43:19.692Z,0.35
2023-01-09T06:45:46.605Z,0.40
2023-01-09T06:48:16.326Z,0.30
2023-01-09T06:50:43.605Z,0.60
2023-01-09T06:53:10.983Z,0.35
2023-01-09T06:55:39.950Z,0.50
2023-01-09T06:58:07.395Z,0.30
2023-01-09T07:00:34.901Z,0.40
2023-01-09T07:03:03.182Z,0.35
2023-01-09T07:05:30.942Z,0.47
2023-01-09T07:07:58.292Z,0.50
2023-01-09T07:10:29.110Z,0.50
2023-01-09T07:12:56.410Z,0.43
2023-01-09T07:15:24.072Z,0.68
2023-01-09T07:17:54.491Z,0.50
2023-01-09T07:22:49.099Z,0.47
2023-01-09T07:25:16.485Z,0.40
2023-01-09T07:27:43.988Z,0.60
2023-01-09T07:30:13.123Z,0.40
2023-01-09T07:32:41.206Z,0.50
2023-01-09T07:35:09.965Z,0.40
2023-01-09T07:37:37.155Z,0.47
2023-01-09T07:40:04.895Z,0.82
2023-01-09T07:42:32.662Z,0.50
2023-01-09T07:45:02.254Z,0.55
2023-01-09T07:47:29.623Z,0.80
2023-01-09T07:49:56.963Z,0.60
2023-01-09T07:52:24.303Z,0.60
2023-01-09T07:54:51.621Z,0.70
2023-01-09T07:57:18.990Z,0.63
2023-01-09T07:59:46.279Z,0.47
2023-01-09T08:02:13.703Z,0.45
2023-01-09T08:04:43.934Z,0.55
2023-01-09T08:07:33.761Z,0.50
2023-01-09T08:10:06.919Z,0.50
2023-01-09T08:12:34.449Z,0.43
2023-01-09T08:15:02.119Z,0.70
2023-01-09T08:20:09.606Z,0.80
2023-01-09T08:25:50.645Z,0.40
2023-01-09T08:35:53.031Z,0.70
2023-01-09T08:38:22.099Z,0.63
2023-01-09T08:40:49.447Z,0.65
2023-01-09T08:43:35.827Z,0.40
2023-01-09T08:46:21.872Z,0.60
2023-01-09T08:48:49.403Z,0.90
2023-01-09T08:51:16.953Z,0.60
2023-01-09T08:53:44.356Z,0.50
2023-01-09T08:56:11.623Z,0.65
2023-01-09T08:58:38.932Z,0.50
2023-01-09T09:01:07.364Z,0.50
2023-01-09T09:03:34.817Z,0.82
2023-01-09T09:06:03.297Z,0.77
2023-01-09T09:08:38.073Z,0.60
2023-01-09T09:11:05.472Z,0.50
2023-01-09T09:13:58.331Z,0.40
2023-01-09T09:16:31.565Z,0.67
2023-01-09T09:19:04.706Z,0.90
2023-01-09T09:21:34.343Z,0.60
2023-01-09T09:24:04.351Z,0.68
2023-01-09T09:26:32.850Z,0.65
2023-01-09T09:29:05.215Z,0.55
2023-01-09T09:31:32.305Z,0.60
2023-01-09T09:33:59.765Z,0.47
2023-01-09T09:36:26.596Z,0.90
2023-01-09T09:38:53.879Z,0.70
2023-01-09T09:42:06.907Z,0.50
2023-01-09T09:44:54.317Z,0.55
2023-01-09T09:47:43.461Z,0.63
2023-01-09T09:50:51.859Z,0.60
2023-01-09T09:53:33.799Z,0.70
2023-01-09T09:56:02.650Z,0.73
2023-01-09T09:58:40.849Z,0.93
2023-01-09T10:01:10.153Z,0.63
2023-01-09T10:03:58.834Z,0.60
2023-01-09T10:06:34.166Z,1.00
2023-01-09T10:09:24.390Z,0.68
2023-01-09T10:12:22.442Z,0.50
2023-01-09T10:14:49.740Z,0.68
2023-01-09T10:17:35.459Z,0.98
2023-01-09T10:20:30.170Z,0.88
2023-01-09T10:23:20.953Z,0.73
2023-01-09T10:26:13.462Z,0.93
2023-01-09T10:29:06.703Z,0.65
2023-01-09T10:32:01.197Z,0.70
2023-01-09T10:34:46.778Z,0.60
2023-01-09T10:37:36.617Z,0.77
2023-01-09T10:40:26.516Z,0.85
2023-01-09T10:43:06.123Z,1.10
2023-01-09T10:45:53.007Z,0.63
2023-01-09T10:48:32.324Z,0.68
2023-01-09T10:50:59.780Z,0.68
2023-01-09T10:53:42.007Z,0.60
2023-01-09T10:56:25.702Z,0.70
2023-01-09T10:58:55.265Z,0.50
2023-01-09T11:01:41.190Z,0.60
2023-01-09T11:04:30.203Z,0.75
2023-01-09T11:07:15.688Z,0.75
2023-01-09T11:09:57.057Z,0.80
2023-01-09T11:12:33.029Z,0.70
2023-01-09T11:15:21.225Z,0.70
2023-01-09T11:17:50.844Z,0.68
2023-01-09T11:20:23.459Z,0.60
2023-01-09T11:23:00.505Z,0.40
2023-01-09T11:25:28.904Z,0.60
2023-01-09T11:28:01.811Z,0.82
2023-01-09T11:30:30.055Z,0.68
2023-01-09T11:32:58.709Z,0.60
2023-01-09T11:35:34.759Z,1.77
2023-01-09T11:38:15.054Z,0.75
2023-01-09T11:40:54.637Z,0.60
2023-01-09T11:43:30.920Z,0.90
2023-01-09T11:46:01.918Z,0.75
2023-01-09T11:48:35.693Z,0.93
2023-01-09T11:51:22.246Z,0.90
2023-01-09T11:54:12.516Z,1.02
2023-01-09T11:56:39.536Z,0.90
2023-01-09T11:59:34.089Z,0.55
2023-01-09T12:02:24.666Z,1.20
2023-01-09T12:04:55.647Z,0.82
2023-01-09T12:07:40.120Z,0.77
2023-01-09T12:10:07.408Z,0.63
2023-01-09T12:12:40.091Z,0.55
2023-01-09T12:15:36.735Z,0.63
2023-01-09T12:18:33.611Z,0.85
2023-01-09T12:21:24.294Z,0.73
2023-01-09T12:24:03.246Z,0.45
2023-01-09T12:26:32.826Z,0.70
2023-01-09T12:29:45.885Z,0.68
2023-01-09T12:32:44.090Z,0.73
2023-01-09T12:35:38.394Z,1.00
2023-01-09T12:38:25.913Z,0.60
2023-01-09T12:41:17.399Z,0.60
2023-01-09T12:43:59.456Z,0.50
2023-01-09T12:46:37.576Z,0.60
2023-01-09T12:49:20.264Z,0.40
2023-01-09T12:51:55.794Z,0.60
2023-01-09T12:54:29.923Z,0.60
2023-01-09T12:57:01.533Z,0.40
2023-01-09T12:59:52.563Z,0.70
2023-01-09T13:03:03.590Z,0.93
2023-01-09T13:05:40.103Z,0.70
2023-01-09T13:08:07.370Z,0.52
2023-01-09T13:10:57.508Z,0.55
2023-01-09T13:13:44.828Z,0.40
2023-01-09T13:16:21.404Z,0.47
2023-01-09T13:19:07.872Z,0.70
2023-01-09T13:21:35.522Z,0.80
2023-01-09T13:24:29.740Z,0.65
2023-01-09T13:27:11.146Z,0.68
2023-01-09T13:29:42.330Z,0.90
2023-01-09T13:32:38.406Z,0.80
2023-01-09T13:35:05.922Z,0.50
2023-01-09T13:37:35.511Z,0.40
2023-01-09T13:40:27.869Z,0.50
2023-01-09T13:43:10.962Z,0.88
2023-01-09T13:45:39.638Z,0.50
2023-01-09T13:48:09.941Z,0.40
2023-01-09T13:50:40.902Z,0.60
2023-01-09T13:53:20.185Z,0.45
2023-01-09T13:55:59.655Z,0.47
2023-01-09T13:58:31.930Z,0.60
2023-01-09T14:01:23.633Z,0.60
2023-01-09T14:04:09.330Z,0.60
2023-01-09T14:06:36.812Z,0.93
2023-01-09T14:09:21.586Z,0.90
2023-01-09T14:11:49.003Z,0.60
2023-01-09T14:14:30.553Z,0.50
2023-01-09T14:16:59.292Z,0.45
2023-01-09T14:19:31.776Z,0.77
2023-01-09T14:21:59.469Z,0.82
2023-01-09T14:24:46.493Z,0.50
2023-01-09T14:27:51.435Z,0.50
2023-01-09T14:30:27.376Z,0.47
2023-01-09T14:33:05.030Z,0.43
2023-01-09T14:35:41.124Z,0.55
2023-01-09T14:38:26.042Z,0.60
2023-01-09T14:41:17.089Z,0.60
2023-01-09T14:43:46.696Z,0.50
2023-01-09T14:46:17.712Z,0.47
2023-01-09T14:48:59.818Z,0.52
2023-01-09T14:51:29.476Z,0.60
2023-01-09T14:53:57.448Z,0.88
2023-01-09T14:56:31.492Z,0.77
2023-01-09T14:59:06.269Z,0.47
2023-01-09T15:01:35.779Z,0.60
2023-01-09T15:04:07.924Z,0.40
2023-01-09T15:06:42.898Z,0.52
2023-01-09T15:09:20.113Z,0.77
2023-01-09T15:11:47.162Z,0.60
2023-01-09T15:14:35.995Z,0.65
2023-01-09T15:17:04.794Z,0.35
2023-01-09T15:19:32.233Z,0.70
2023-01-09T15:22:05.880Z,0.57
2023-01-09T15:24:34.831Z,0.60
2023-01-09T15:27:15.702Z,0.60
2023-01-09T15:29:43.058Z,0.73
2023-01-09T15:32:16.569Z,0.70
2023-01-09T15:34:45.128Z,0.93
2023-01-09T15:37:27.048Z,0.82
2023-01-09T15:39:54.759Z,0.63
2023-01-09T15:42:44.072Z,0.90
2023-01-09T15:45:24.578Z,1.00
2023-01-09T15:47:51.783Z,0.75
2023-01-09T15:50:23.873Z,0.88
2023-01-09T15:52:52.008Z,0.65
2023-01-09T15:55:38.086Z,1.08
2023-01-09T15:58:26.751Z,0.57
2023-01-09T16:00:57.507Z,0.65
2023-01-09T16:03:25.586Z,1.00
2023-01-09T16:06:14.995Z,0.77
2023-01-09T16:08:50.062Z,1.02
2023-01-09T16:11:32.915Z,0.80
2023-01-09T16:14:34.590Z,0.68
2023-01-09T16:17:15.295Z,1.10
2023-01-09T16:19:52.718Z,1.00
2023-01-09T16:22:29.196Z,0.80
2023-01-09T16:24:59.597Z,0.80
2023-01-09T16:29:59.702Z,0.85
2023-01-09T16:32:48.592Z,0.80
2023-01-09T16:35:19.216Z,0.63
2023-01-09T16:37:47.014Z,0.65
2023-01-09T16:40:21.789Z,0.70
2023-01-09T16:43:02.096Z,0.70
2023-01-09T16:45:42.640Z,0.82
2023-01-09T16:48:23.164Z,0.85
2023-01-09T16:51:02.964Z,0.63
2023-01-09T16:53:35.202Z,0.80
2023-01-09T16:56:03.527Z,0.57
2023-01-09T16:58:49.102Z,0.60
2023-01-09T17:08:47.930Z,0.80
2023-01-09T17:11:36.639Z,0.52
2023-01-09T17:14:42.543Z,0.70
2023-01-09T17:17:52.401Z,0.90
2023-01-09T17:20:20.460Z,0.43
2023-01-09T17:22:50.166Z,0.70
2023-01-09T17:26:26.043Z,0.80
2023-01-09T17:32:31.418Z,0.82
2023-01-09T17:34:59.134Z,0.93
2023-01-09T17:37:26.906Z,0.52
2023-01-09T17:39:59.975Z,0.70
2023-01-09T17:42:30.192Z,1.10
2023-01-09T17:44:58.437Z,1.10
2023-01-09T17:47:42.320Z,0.70
2023-01-09T17:50:20.951Z,1.20
2023-01-09T17:53:15.343Z,0.82
2023-01-09T17:55:46.176Z,0.90
2023-01-09T17:58:38.909Z,0.90
2023-01-09T18:01:06.764Z,0.90
2023-01-09T18:07:00.927Z,1.05
2023-01-09T18:09:39.790Z,1.00
2023-01-09T18:12:48.494Z,1.13
2023-01-09T18:18:22.658Z,1.08
2023-01-09T18:20:51.392Z,1.02
2023-01-09T18:23:18.952Z,1.38
2023-01-09T18:25:46.789Z,1.20
2023-01-09T18:28:20.200Z,0.80
2023-01-09T18:30:51.223Z,1.10
2023-01-09T18:33:19.215Z,1.00
2023-01-09T18:35:47.115Z,1.00
2023-01-09T18:38:20.590Z,0.95
2023-01-09T18:40:48.253Z,1.30
2023-01-09T18:43:16.602Z,1.08
2023-01-09T18:45:44.178Z,1.20
2023-01-09T18:48:12.146Z,1.20
2023-01-09T18:50:39.524Z,1.40
2023-01-09T18:53:07.557Z,1.60
2023-01-09T18:55:36.735Z,1.30
2023-01-09T18:58:04.557Z,1.60
2023-01-09T19:00:32.165Z,1.63
2023-01-09T19:03:01.550Z,1.50
2023-01-09T19:05:28.939Z,1.48
2023-01-09T19:07:58.155Z,1.48
2023-01-09T19:10:25.504Z,1.60
2023-01-09T19:12:52.832Z,1.30
2023-01-09T19:15:20.139Z,1.42
2023-01-09T19:17:50.324Z,1.75
2023-01-09T19:20:24.637Z,1.60
2023-01-09T19:22:55.318Z,1.88
2023-01-09T19:25:22.685Z,1.60
2023-01-09T19:27:50.200Z,1.52
2023-01-09T19:30:17.836Z,1.60
2023-01-09T19:32:52.902Z,1.42
2023-01-09T19:35:20.497Z,1.30
2023-01-09T19:37:47.784Z,1.50
2023-01-09T19:40:15.317Z,1.48
2023-01-09T19:42:44.920Z,1.90
2023-01-09T19:45:40.145Z,2.03
2023-01-09T19:48:09.950Z,1.98
2023-01-09T19:50:38.232Z,1.60
2023-01-09T19:56:25.378Z,1.60
2023-01-09T19:58:54.764Z,2.00
2023-01-09T20:01:32.417Z,1.73
2023-01-09T20:04:05.270Z,1.95
2023-01-09T20:06:32.792Z,2.35
2023-01-09T20:09:21.819Z,1.80
2023-01-09T20:11:49.724Z,2.28
2023-01-09T20:14:19.257Z,2.17
2023-01-09T20:16:48.852Z,1.60
2023-01-09T20:19:16.869Z,1.65
2023-01-09T20:21:46.679Z,2.40
2023-01-09T20:24:19.906Z,1.88
2023-01-09T20:26:47.538Z,2.03
2023-01-09T20:29:14.987Z,2.08
2023-01-09T20:31:44.994Z,1.75
2023-01-09T20:34:12.762Z,2.13
2023-01-09T20:36:40.169Z,2.30
2023-01-09T20:39:11.262Z,1.88
2023-01-09T20:41:39.037Z,2.10
2023-01-09T20:44:09.569Z,1.80
2023-01-09T20:46:41.139Z,2.28
2023-01-09T20:49:11.794Z,2.05
2023-01-09T20:51:44.693Z,2.17
2023-01-09T20:54:11.960Z,2.35
2023-01-09T20:56:39.346Z,2.05
2023-01-09T20:59:18.791Z,2.25
2023-01-09T21:01:46.441Z,2.72
2023-01-09T21:04:13.975Z,2.42
2023-01-09T21:06:42.719Z,2.13
2023-01-09T21:09:10.103Z,2.33
2023-01-09T21:11:37.747Z,2.03
2023-01-09T21:14:05.262Z,2.45
2023-01-09T21:16:32.955Z,2.13
2023-01-09T21:19:00.498Z,1.92
2023-01-09T21:21:29.992Z,2.33
2023-01-09T21:23:59.383Z,1.97
2023-01-09T21:26:29.166Z,1.77
2023-01-09T21:29:01.615Z,1.83
2023-01-09T21:31:35.260Z,1.77
2023-01-09T21:34:05.062Z,1.63
2023-01-09T21:36:32.888Z,2.00
2023-01-09T21:39:00.497Z,1.70
2023-01-09T21:41:46.397Z,1.50
2023-01-09T21:44:32.837Z,1.55
2023-01-09T21:47:01.707Z,1.45
2023-01-09T21:49:31.474Z,1.83
2023-01-09T21:51:58.970Z,1.05
2023-01-09T21:54:26.345Z,1.00
2023-01-09T21:56:53.945Z,1.17
2023-01-09T21:59:21.377Z,0.73
2023-01-09T22:01:49.429Z,1.33
2023-01-09T22:04:21.030Z,0.70
2023-01-09T22:06:48.436Z,0.95
2023-01-09T22:09:15.980Z,0.90
2023-01-09T22:11:43.951Z,1.23
2023-01-09T22:14:16.861Z,1.05
2023-01-09T22:16:45.495Z,1.15
2023-01-09T22:19:13.321Z,1.20
2023-01-09T22:21:40.854Z,1.50
2023-01-09T22:24:08.484Z,1.85
2023-01-09T22:26:35.837Z,1.70
2023-01-09T22:29:03.225Z,2.55
2023-01-09T22:31:32.847Z,2.67
2023-01-09T22:34:02.594Z,2.80
2023-01-09T22:36:31.157Z,3.20
2023-01-09T22:38:59.528Z,3.20
2023-01-09T22:41:29.694Z,3.25
2023-01-09T22:46:26.601Z,3.28
2023-01-09T22:48:53.943Z,3.58
2023-01-09T22:51:22.365Z,3.03
2023-01-09T22:53:51.064Z,3.75
2023-01-09T22:56:21.286Z,3.15
2023-01-09T22:58:52.934Z,4.10
2023-01-09T23:01:20.917Z,3.15
2023-01-09T23:03:48.318Z,3.30
2023-01-09T23:06:17.689Z,3.58
2023-01-09T23:08:46.332Z,3.53
2023-01-09T23:11:39.158Z,3.38
2023-01-09T23:14:06.579Z,4.95
2023-01-09T23:16:34.171Z,3.58
2023-01-09T23:19:01.543Z,3.90
2023-01-09T23:21:28.857Z,3.83
2023-01-09T23:23:56.299Z,3.67
2023-01-09T23:26:26.012Z,3.55
2023-01-09T23:28:53.258Z,3.58
2023-01-09T23:31:20.617Z,3.70
2023-01-09T23:33:47.965Z,2.70
2023-01-09T23:36:15.331Z,4.22
2023-01-09T23:38:42.672Z,2.95
2023-01-09T23:41:10.610Z,3.53
2023-01-09T23:43:37.982Z,3.40
2023-01-09T23:46:05.503Z,3.33
2023-01-09T23:48:32.843Z,3.17
2023-01-09T23:51:00.258Z,3.30
2023-01-09T23:53:29.763Z,3.15
2023-01-09T23:55:57.259Z,2.83
2023-01-09T23:58:25.931Z,2.58
